Time;durP1;ratioP1;P1;durP2;ratioP2;P2;SDS_P1;SDS_P2;PMS_P1;PMS_P2;Temp;Humidity;BMP_temperature;BMP_pressure;BME280_temperature;BME280_humidity;BME280_pressure;Samples;Min_cycle;Max_cycle;Signal;HPM_P1;HPM_P2
2022/12/06 00:01:22;;;;;;;7.78;2.60;;;;;;;;;;5028159;28;20045;-79
2022/12/06 00:03:51;;;;;;;5.82;2.60;;;;;;;;;;5015873;28;20052;-79
2022/12/06 00:06:19;;;;;;;5.30;2.20;;;;;;;;;;5033707;28;20041;-79
2022/12/06 00:08:46;;;;;;;6.40;2.35;;;;;;;;;;5028980;28;20042;-79
2022/12/06 00:11:16;;;;;;;7.20;2.22;;;;;;;;;;5017982;28;20054;-79
2022/12/06 00:13:43;;;;;;;8.38;2.42;;;;;;;;;;5014441;28;20077;-79
2022/12/06 00:16:11;;;;;;;2.50;1.88;;;;;;;;;;5014208;28;20053;-79
2022/12/06 00:18:38;;;;;;;4.57;1.90;;;;;;;;;;5030313;28;20060;-79
2022/12/06 00:21:07;;;;;;;3.42;1.80;;;;;;;;;;5035872;28;20050;-79
2022/12/06 00:23:35;;;;;;;4.30;2.20;;;;;;;;;;5020532;28;20042;-79
2022/12/06 00:26:01;;;;;;;3.70;2.10;;;;;;;;;;5025713;28;20153;-79
2022/12/06 00:28:27;;;;;;;3.88;2.33;;;;;;;;;;5013027;28;20137;-79
2022/12/06 00:30:57;;;;;;;4.72;2.65;;;;;;;;;;5023480;28;20041;-79
2022/12/06 00:33:23;;;;;;;4.47;2.55;;;;;;;;;;5024782;28;20048;-79
2022/12/06 00:35:56;;;;;;;5.85;2.60;;;;;;;;;;5021854;28;20471;-79
2022/12/06 00:38:22;;;;;;;5.53;2.92;;;;;;;;;;5038155;28;20041;-79
2022/12/06 00:40:48;;;;;;;5.90;2.70;;;;;;;;;;5039997;28;20091;-78
2022/12/06 00:43:14;;;;;;;5.93;2.80;;;;;;;;;;5040176;28;20053;-78
2022/12/06 00:45:40;;;;;;;6.80;2.88;;;;;;;;;;5038004;28;20096;-78
2022/12/06 00:48:06;;;;;;;7.50;2.90;;;;;;;;;;5023698;28;20053;-78
2022/12/06 00:50:33;;;;;;;5.88;3.35;;;;;;;;;;5033537;28;20506;-79
2022/12/06 00:52:59;;;;;;;8.40;3.42;;;;;;;;;;5020125;28;20385;-77
2022/12/06 00:55:25;;;;;;;5.85;3.28;;;;;;;;;;5032766;28;20045;-77
2022/12/06 00:57:51;;;;;;;6.28;3.17;;;;;;;;;;5020577;28;20480;-78
2022/12/06 01:00:17;;;;;;;4.85;2.90;;;;;;;;;;5022985;28;20045;-78
2022/12/06 01:02:43;;;;;;;5.28;3.30;;;;;;;;;;5026136;28;20124;-79
2022/12/06 01:05:09;;;;;;;7.97;3.15;;;;;;;;;;5037448;28;20048;-79
2022/12/06 01:07:35;;;;;;;6.90;3.17;;;;;;;;;;5039921;28;20082;-78
2022/12/06 01:10:01;;;;;;;5.53;2.80;;;;;;;;;;5026469;28;20045;-79
2022/12/06 01:12:27;;;;;;;8.23;2.80;;;;;;;;;;5032766;28;20042;-79
2022/12/06 01:14:53;;;;;;;5.28;2.85;;;;;;;;;;5031774;28;20120;-79
2022/12/06 01:17:19;;;;;;;6.63;2.67;;;;;;;;;;5040129;28;20047;-79
2022/12/06 01:19:45;;;;;;;4.70;2.90;;;;;;;;;;5032536;28;20046;-79
2022/12/06 01:22:11;;;;;;;5.85;2.70;;;;;;;;;;5024886;28;20095;-79
2022/12/06 01:24:38;;;;;;;4.93;2.97;;;;;;;;;;5029167;28;20053;-78
2022/12/06 01:27:05;;;;;;;4.03;2.90;;;;;;;;;;5035559;28;20123;-79
2022/12/06 01:29:31;;;;;;;7.03;2.92;;;;;;;;;;5031318;28;20137;-79
2022/12/06 01:31:57;;;;;;;7.47;3.25;;;;;;;;;;5034503;28;20050;-79
2022/12/06 01:34:23;;;;;;;5.32;3.10;;;;;;;;;;5039624;28;20037;-78
2022/12/06 01:36:49;;;;;;;9.45;3.50;;;;;;;;;;5039667;28;20043;-78
2022/12/06 01:39:15;;;;;;;6.78;3.40;;;;;;;;;;5023725;28;20403;-78
2022/12/06 01:41:41;;;;;;;4.03;2.80;;;;;;;;;;5030867;28;20056;-78
2022/12/06 01:44:27;;;;;;;7.00;3.25;;;;;;;;;;5038316;28;20048;-79
2022/12/06 01:46:54;;;;;;;5.72;3.28;;;;;;;;;;5027280;28;20046;-78
2022/12/06 01:49:22;;;;;;;5.50;3.30;;;;;;;;;;5016651;28;20042;-78
2022/12/06 01:51:50;;;;;;;3.72;2.78;;;;;;;;;;5034480;28;20049;-78
2022/12/06 01:54:18;;;;;;;4.88;2.90;;;;;;;;;;5017615;28;20049;-79
2022/12/06 01:56:45;;;;;;;8.60;3.03;;;;;;;;;;5029744;28;20076;-79
2022/12/06 01:59:11;;;;;;;4.55;2.90;;;;;;;;;;5036155;28;20119;-79
2022/12/06 02:01:38;;;;;;;6.38;2.83;;;;;;;;;;5036423;28;20049;-79
2022/12/06 02:04:04;;;;;;;5.97;3.13;;;;;;;;;;5030225;28;20041;-79
2022/12/06 02:06:31;;;;;;;9.48;3.15;;;;;;;;;;5029160;28;20041;-79
2022/12/06 02:09:01;;;;;;;5.43;3.22;;;;;;;;;;5031693;28;20057;-78
2022/12/06 02:11:27;;;;;;;5.18;3.20;;;;;;;;;;5033591;28;20045;-78
2022/12/06 02:13:54;;;;;;;5.97;3.40;;;;;;;;;;5029073;28;20046;-78
2022/12/06 02:16:30;;;;;;;7.60;3.30;;;;;;;;;;5034602;28;20475;-79
2022/12/06 02:19:15;;;;;;;6.10;3.28;;;;;;;;;;5031900;28;20131;-78
2022/12/06 02:21:44;;;;;;;5.95;3.20;;;;;;;;;;5035179;28;20041;-78
2022/12/06 02:24:33;;;;;;;7.03;3.28;;;;;;;;;;5036374;28;20041;-79
2022/12/06 02:27:08;;;;;;;4.78;3.65;;;;;;;;;;5035218;28;20033;-79
2022/12/06 02:29:38;;;;;;;5.00;3.10;;;;;;;;;;5039582;28;20095;-79
2022/12/06 02:32:07;;;;;;;6.55;3.13;;;;;;;;;;5035443;28;20088;-79
2022/12/06 02:34:51;;;;;;;6.50;3.17;;;;;;;;;;5035583;28;20042;-79
2022/12/06 02:37:31;;;;;;;5.80;2.88;;;;;;;;;;5032812;28;20091;-79
2022/12/06 02:40:01;;;;;;;7.28;3.08;;;;;;;;;;5024918;28;20045;-79
2022/12/06 02:42:36;;;;;;;3.92;2.72;;;;;;;;;;5022513;28;20038;-79
2022/12/06 02:45:04;;;;;;;6.15;3.13;;;;;;;;;;5015723;28;20060;-78
2022/12/06 02:47:32;;;;;;;5.25;2.83;;;;;;;;;;5019540;28;20045;-78
2022/12/06 02:49:59;;;;;;;8.90;2.90;;;;;;;;;;5034290;28;20172;-78
2022/12/06 02:52:26;;;;;;;7.97;3.28;;;;;;;;;;5030414;28;20056;-78
2022/12/06 02:54:57;;;;;;;7.95;2.85;;;;;;;;;;5014121;28;20042;-78
2022/12/06 02:57:44;;;;;;;5.57;2.65;;;;;;;;;;5029469;28;20049;-78
2022/12/06 03:00:28;;;;;;;5.18;2.53;;;;;;;;;;5027162;28;20077;-78
2022/12/06 03:03:03;;;;;;;6.97;2.72;;;;;;;;;;5028928;28;20455;-77
2022/12/06 03:05:33;;;;;;;4.65;2.95;;;;;;;;;;5026012;28;20046;-77
2022/12/06 03:08:01;;;;;;;5.10;2.85;;;;;;;;;;5028762;28;20393;-79
2022/12/06 03:10:30;;;;;;;7.65;3.05;;;;;;;;;;5034894;28;20443;-79
2022/12/06 03:13:04;;;;;;;5.20;3.15;;;;;;;;;;5030685;28;20050;-79
2022/12/06 03:15:46;;;;;;;7.53;2.83;;;;;;;;;;5024809;28;20044;-79
2022/12/06 03:18:19;;;;;;;6.80;2.80;;;;;;;;;;5028579;28;20068;-79
2022/12/06 03:20:55;;;;;;;4.72;2.90;;;;;;;;;;5025358;28;20049;-79
2022/12/06 03:23:26;;;;;;;6.20;2.90;;;;;;;;;;5034643;28;20396;-79
2022/12/06 03:25:54;;;;;;;8.98;3.20;;;;;;;;;;5034103;28;20432;-79
2022/12/06 03:28:21;;;;;;;5.47;2.95;;;;;;;;;;5031991;28;20045;-79
2022/12/06 03:30:50;;;;;;;5.72;2.78;;;;;;;;;;5025408;28;20037;-79
2022/12/06 03:33:17;;;;;;;7.13;2.92;;;;;;;;;;5021632;28;20073;-79
2022/12/06 03:35:44;;;;;;;6.20;2.42;;;;;;;;;;5018482;28;20041;-79
2022/12/06 03:38:14;;;;;;;8.50;2.45;;;;;;;;;;5034508;28;20037;-78
2022/12/06 03:40:42;;;;;;;4.25;1.92;;;;;;;;;;5020237;28;20041;-78
2022/12/06 03:43:09;;;;;;;4.05;1.83;;;;;;;;;;5025487;28;20046;-78
2022/12/06 03:45:49;;;;;;;5.28;2.00;;;;;;;;;;5025925;28;20420;-78
2022/12/06 03:48:21;;;;;;;2.60;1.60;;;;;;;;;;5034586;28;20379;-78
2022/12/06 03:50:49;;;;;;;2.35;1.60;;;;;;;;;;5032635;28;20065;-78
2022/12/06 03:53:16;;;;;;;5.90;1.83;;;;;;;;;;5034198;28;20049;-78
2022/12/06 03:55:43;;;;;;;3.05;1.85;;;;;;;;;;5031455;28;20447;-79
2022/12/06 03:58:09;;;;;;;4.53;1.83;;;;;;;;;;5014347;28;20378;-78
2022/12/06 04:00:35;;;;;;;3.13;1.52;;;;;;;;;;5023629;28;20045;-79
2022/12/06 04:03:01;;;;;;;1.70;1.20;;;;;;;;;;5032706;28;20649;-79
2022/12/06 04:05:27;;;;;;;2.72;1.40;;;;;;;;;;5031447;28;20380;-79
2022/12/06 04:07:54;;;;;;;3.10;1.52;;;;;;;;;;5020420;28;20034;-78
2022/12/06 04:10:20;;;;;;;3.58;1.67;;;;;;;;;;5034804;28;20052;-78
2022/12/06 04:13:01;;;;;;;3.15;1.67;;;;;;;;;;5034848;28;20049;-78
2022/12/06 04:15:31;;;;;;;3.97;1.60;;;;;;;;;;5048650;28;20129;-79
2022/12/06 04:18:10;;;;;;;5.55;1.73;;;;;;;;;;5026591;28;20103;-78
2022/12/06 04:23:29;;;;;;;4.22;2.00;;;;;;;;;;5013689;28;20060;-78
2022/12/06 04:25:55;;;;;;;5.65;1.77;;;;;;;;;;5022693;28;20511;-79
2022/12/06 04:39:24;;;;;;;3.50;1.65;;;;;;;;;;5032250;28;20139;-78
2022/12/06 04:44:35;;;;;;;2.50;1.80;;;;;;;;;;5032110;28;20049;-78
2022/12/06 04:47:01;;;;;;;3.63;1.90;;;;;;;;;;5031569;28;20058;-78
2022/12/06 04:49:28;;;;;;;5.93;2.13;;;;;;;;;;5018152;28;20038;-78
2022/12/06 04:51:54;;;;;;;3.15;2.17;;;;;;;;;;5032313;28;20048;-79
2022/12/06 04:54:20;;;;;;;3.20;2.00;;;;;;;;;;5016243;28;20077;-78
2022/12/06 04:56:47;;;;;;;5.10;1.90;;;;;;;;;;5022377;28;20492;-78
2022/12/06 04:59:13;;;;;;;3.35;1.98;;;;;;;;;;5031002;28;20045;-78
2022/12/06 05:01:39;;;;;;;4.00;2.00;;;;;;;;;;5007668;28;20050;-78
2022/12/06 05:04:05;;;;;;;3.30;2.05;;;;;;;;;;5026978;28;20133;-78
2022/12/06 05:06:31;;;;;;;3.22;1.80;;;;;;;;;;5032230;28;20049;-78
2022/12/06 05:08:57;;;;;;;6.63;2.22;;;;;;;;;;5033234;28;20468;-78
2022/12/06 05:11:23;;;;;;;8.05;2.05;;;;;;;;;;5032867;28;20566;-78
2022/12/06 05:13:49;;;;;;;4.65;2.05;;;;;;;;;;5013684;28;20107;-78
2022/12/06 05:16:15;;;;;;;8.15;1.92;;;;;;;;;;5028092;28;20443;-78
2022/12/06 05:18:41;;;;;;;6.05;1.90;;;;;;;;;;5029033;28;20064;-78
2022/12/06 05:21:10;;;;;;;6.90;2.05;;;;;;;;;;5018386;28;20053;-79
2022/12/06 05:23:36;;;;;;;4.10;2.05;;;;;;;;;;5030776;28;20049;-78
2022/12/06 05:26:04;;;;;;;4.32;2.05;;;;;;;;;;5035908;28;20053;-79
2022/12/06 05:28:31;;;;;;;3.17;1.90;;;;;;;;;;5035251;28;20049;-79
2022/12/06 05:30:57;;;;;;;6.38;2.03;;;;;;;;;;5023438;28;20054;-79
2022/12/06 05:33:24;;;;;;;3.75;1.90;;;;;;;;;;5024943;28;20081;-79
2022/12/06 05:35:51;;;;;;;3.55;1.90;;;;;;;;;;5036018;28;20061;-79
2022/12/06 05:38:18;;;;;;;5.25;2.10;;;;;;;;;;5030325;28;20045;-79
2022/12/06 05:40:44;;;;;;;5.65;2.10;;;;;;;;;;5036540;28;20050;-79
2022/12/06 05:43:10;;;;;;;4.22;2.00;;;;;;;;;;5036958;28;20041;-79
2022/12/06 05:45:37;;;;;;;5.45;2.15;;;;;;;;;;5036783;28;20052;-79
2022/12/06 05:48:03;;;;;;;3.97;2.63;;;;;;;;;;5034181;28;20160;-79
2022/12/06 05:50:29;;;;;;;6.00;2.67;;;;;;;;;;5031682;28;20389;-79
2022/12/06 05:52:56;;;;;;;4.05;2.42;;;;;;;;;;5018791;28;20461;-79
2022/12/06 05:55:22;;;;;;;3.78;2.70;;;;;;;;;;5036314;28;20045;-79
2022/12/06 05:57:49;;;;;;;6.50;2.95;;;;;;;;;;5035697;28;20042;-79
2022/12/06 06:00:15;;;;;;;3.95;2.83;;;;;;;;;;5036108;28;20534;-79
2022/12/06 06:02:41;;;;;;;4.97;3.25;;;;;;;;;;5022127;28;20133;-79
2022/12/06 06:05:07;;;;;;;3.67;2.42;;;;;;;;;;5026521;28;20455;-79
2022/12/06 06:07:33;;;;;;;5.90;3.30;;;;;;;;;;5016787;28;20045;-78
2022/12/06 06:09:59;;;;;;;6.75;3.15;;;;;;;;;;5015737;28;20132;-78
2022/12/06 06:12:25;;;;;;;5.70;3.20;;;;;;;;;;5022344;28;20054;-81
2022/12/06 06:14:52;;;;;;;6.97;3.42;;;;;;;;;;5019784;28;20503;-78
2022/12/06 06:17:18;;;;;;;6.70;4.10;;;;;;;;;;5037571;28;20622;-79
2022/12/06 06:19:44;;;;;;;5.32;3.67;;;;;;;;;;5032877;28;20057;-79
2022/12/06 06:22:10;;;;;;;5.65;3.58;;;;;;;;;;5034533;28;20053;-79
2022/12/06 06:24:37;;;;;;;7.57;3.33;;;;;;;;;;5036388;28;20079;-79
2022/12/06 06:27:03;;;;;;;9.18;3.55;;;;;;;;;;5036153;28;20052;-79
2022/12/06 06:29:29;;;;;;;6.82;3.88;;;;;;;;;;5026898;28;20046;-79
2022/12/06 06:31:56;;;;;;;7.40;3.28;;;;;;;;;;5015511;28;20088;-78
2022/12/06 06:34:22;;;;;;;8.02;3.28;;;;;;;;;;5035370;28;20045;-78
2022/12/06 06:36:48;;;;;;;5.28;3.35;;;;;;;;;;5035413;28;20125;-78
2022/12/06 06:39:14;;;;;;;6.72;3.20;;;;;;;;;;5031010;28;20037;-78
2022/12/06 06:41:40;;;;;;;5.10;3.15;;;;;;;;;;5025490;28;20045;-78
2022/12/06 06:44:06;;;;;;;6.82;3.65;;;;;;;;;;5020286;28;20045;-76
2022/12/06 06:46:32;;;;;;;7.03;3.55;;;;;;;;;;5027056;28;20052;-76
2022/12/06 06:48:58;;;;;;;9.07;4.45;;;;;;;;;;5039270;28;20080;-76
2022/12/06 06:51:24;;;;;;;8.55;5.05;;;;;;;;;;5049477;28;20081;-75
2022/12/06 06:53:50;;;;;;;9.35;4.80;;;;;;;;;;5036515;28;20080;-76
2022/12/06 06:56:16;;;;;;;8.85;4.90;;;;;;;;;;5035791;28;20163;-76
2022/12/06 06:58:42;;;;;;;8.45;5.32;;;;;;;;;;5036746;28;20045;-77
2022/12/06 07:01:09;;;;;;;7.00;4.68;;;;;;;;;;5036391;28;20049;-76
2022/12/06 07:03:35;;;;;;;8.30;5.28;;;;;;;;;;5016261;28;20045;-76
2022/12/06 07:06:03;;;;;;;8.93;4.68;;;;;;;;;;5018836;28;20038;-76
2022/12/06 07:08:31;;;;;;;10.23;4.45;;;;;;;;;;5027261;28;20057;-76
2022/12/06 07:10:57;;;;;;;7.80;4.10;;;;;;;;;;5028361;28;20128;-76
2022/12/06 07:13:24;;;;;;;6.45;3.95;;;;;;;;;;5029354;28;20546;-76
2022/12/06 07:15:50;;;;;;;6.80;4.25;;;;;;;;;;5029614;28;20069;-76
2022/12/06 07:18:17;;;;;;;6.88;4.03;;;;;;;;;;5034428;28;20065;-76
2022/12/06 07:20:43;;;;;;;6.90;3.60;;;;;;;;;;5027565;28;20045;-76
2022/12/06 07:23:09;;;;;;;6.30;3.83;;;;;;;;;;5038168;28;20049;-76
2022/12/06 07:25:35;;;;;;;7.55;4.28;;;;;;;;;;5023281;28;20113;-77
2022/12/06 07:28:01;;;;;;;6.65;5.00;;;;;;;;;;5034914;28;20056;-76
2022/12/06 07:30:28;;;;;;;7.82;4.90;;;;;;;;;;5026720;28;20045;-77
2022/12/06 07:32:54;;;;;;;7.65;4.88;;;;;;;;;;5030868;28;20041;-76
2022/12/06 07:35:20;;;;;;;6.85;3.97;;;;;;;;;;5029703;28;20055;-76
2022/12/06 07:37:46;;;;;;;6.75;3.80;;;;;;;;;;5035428;28;20045;-76
2022/12/06 07:40:13;;;;;;;5.93;3.85;;;;;;;;;;5050556;28;20049;-76
2022/12/06 07:45:24;;;;;;;7.53;3.45;;;;;;;;;;5035537;28;20049;-76
2022/12/06 07:47:50;;;;;;;6.47;4.13;;;;;;;;;;5029186;28;20045;-76
2022/12/06 07:50:18;;;;;;;10.10;4.25;;;;;;;;;;5016267;28;20041;-76
2022/12/06 07:52:45;;;;;;;8.35;5.28;;;;;;;;;;5016515;28;20088;-76
2022/12/06 07:55:11;;;;;;;12.88;8.98;;;;;;;;;;5032916;28;20052;-76
2022/12/06 07:57:37;;;;;;;9.85;6.43;;;;;;;;;;5022743;28;20052;-76
2022/12/06 08:00:05;;;;;;;8.13;4.63;;;;;;;;;;5037089;28;20049;-76
2022/12/06 08:02:31;;;;;;;7.53;4.53;;;;;;;;;;5034542;28;20068;-77
2022/12/06 08:04:57;;;;;;;7.53;3.90;;;;;;;;;;5036666;28;20133;-78
2022/12/06 08:07:24;;;;;;;12.50;6.25;;;;;;;;;;5052426;28;20045;-77
2022/12/06 08:09:51;;;;;;;9.05;7.03;;;;;;;;;;5036509;28;20077;-77
2022/12/06 08:12:17;;;;;;;12.60;8.40;;;;;;;;;;5037670;28;20154;-78
2022/12/06 08:14:43;;;;;;;16.73;11.80;;;;;;;;;;5023409;28;20511;-76
2022/12/06 08:17:10;;;;;;;22.10;12.43;;;;;;;;;;5021253;28;20049;-76
2022/12/06 08:19:36;;;;;;;21.63;11.10;;;;;;;;;;5037060;28;20116;-77
2022/12/06 08:22:02;;;;;;;16.83;9.98;;;;;;;;;;5036560;28;20057;-77
2022/12/06 08:24:28;;;;;;;21.67;12.35;;;;;;;;;;5037617;28;20125;-77
2022/12/06 08:26:54;;;;;;;19.95;13.00;;;;;;;;;;5037282;28;20499;-77
2022/12/06 08:29:21;;;;;;;54.47;32.17;;;;;;;;;;5037227;28;20045;-77
2022/12/06 08:31:47;;;;;;;34.38;22.92;;;;;;;;;;5036264;28;20136;-77
2022/12/06 08:34:14;;;;;;;9.55;8.18;;;;;;;;;;5023099;28;20053;-77
2022/12/06 08:36:40;;;;;;;7.30;5.57;;;;;;;;;;5026051;28;20069;-76
2022/12/06 08:39:10;;;;;;;6.55;3.97;;;;;;;;;;5035655;28;20045;-76
2022/12/06 08:41:57;;;;;;;6.60;4.10;;;;;;;;;;5031722;28;20424;-77
2022/12/06 08:44:25;;;;;;;10.52;6.20;;;;;;;;;;5035773;28;20060;-77
2022/12/06 08:46:52;;;;;;;9.20;6.75;;;;;;;;;;5030487;28;20151;-76
2022/12/06 08:49:19;;;;;;;11.07;6.47;;;;;;;;;;5021592;28;20492;-77
2022/12/06 08:51:45;;;;;;;9.45;7.07;;;;;;;;;;5021736;28;20037;-76
2022/12/06 08:54:12;;;;;;;10.13;5.45;;;;;;;;;;5026118;28;20041;-77
2022/12/06 08:56:38;;;;;;;10.27;5.25;;;;;;;;;;5036955;28;20476;-77
2022/12/06 08:59:04;;;;;;;7.00;3.85;;;;;;;;;;5039223;28;20381;-77
2022/12/06 09:01:31;;;;;;;4.95;3.15;;;;;;;;;;5027709;28;20073;-77
2022/12/06 09:03:58;;;;;;;4.15;2.70;;;;;;;;;;5029499;28;20037;-77
2022/12/06 09:06:27;;;;;;;4.78;2.40;;;;;;;;;;5024272;28;20652;-77
2022/12/06 09:08:54;;;;;;;9.20;2.60;;;;;;;;;;5039563;28;20087;-76
2022/12/06 09:11:21;;;;;;;4.47;2.40;;;;;;;;;;5036821;28;20045;-76
2022/12/06 09:13:47;;;;;;;6.28;3.33;;;;;;;;;;5032178;28;20042;-77
2022/12/06 09:16:14;;;;;;;8.15;4.65;;;;;;;;;;5032851;28;20042;-77
2022/12/06 09:18:41;;;;;;;7.82;4.15;;;;;;;;;;5019149;28;20053;-76
2022/12/06 09:21:08;;;;;;;3.58;3.10;;;;;;;;;;5037365;28;20064;-76
2022/12/06 09:23:35;;;;;;;5.45;3.08;;;;;;;;;;5035646;28;20041;-76
2022/12/06 09:26:01;;;;;;;6.30;3.50;;;;;;;;;;5036459;28;20041;-76
2022/12/06 09:28:28;;;;;;;5.35;3.13;;;;;;;;;;5036339;28;20087;-76
2022/12/06 09:30:54;;;;;;;4.68;3.20;;;;;;;;;;5035170;28;20475;-76
2022/12/06 09:33:21;;;;;;;6.25;3.38;;;;;;;;;;5036942;28;20048;-76
2022/12/06 09:35:47;;;;;;;6.32;3.00;;;;;;;;;;5037256;28;20440;-76
2022/12/06 09:38:13;;;;;;;5.25;2.88;;;;;;;;;;5036696;28;20042;-76
2022/12/06 09:41:00;;;;;;;5.22;3.20;;;;;;;;;;5026028;28;20046;-76
2022/12/06 09:43:26;;;;;;;4.40;3.50;;;;;;;;;;5037564;28;20034;-76
2022/12/06 09:46:04;;;;;;;5.40;3.80;;;;;;;;;;5038062;28;20538;-76
2022/12/06 09:48:42;;;;;;;4.93;3.45;;;;;;;;;;5031287;28;20060;-76
2022/12/06 09:51:14;;;;;;;5.20;3.35;;;;;;;;;;5025879;28;20084;-76
2022/12/06 09:53:40;;;;;;;7.85;4.90;;;;;;;;;;5036688;28;20408;-76
2022/12/06 09:56:06;;;;;;;6.85;3.88;;;;;;;;;;5040561;28;20484;-76
2022/12/06 09:58:32;;;;;;;6.75;4.00;;;;;;;;;;5040013;28;20187;-76
2022/12/06 10:01:09;;;;;;;9.15;4.30;;;;;;;;;;5037451;28;20077;-76
2022/12/06 10:03:43;;;;;;;7.15;4.63;;;;;;;;;;5055507;28;20045;-76
2022/12/06 10:06:14;;;;;;;9.55;4.40;;;;;;;;;;5039931;28;20480;-77
2022/12/06 10:08:40;;;;;;;7.75;4.53;;;;;;;;;;5032110;28;20049;-77
2022/12/06 10:11:12;;;;;;;9.25;5.40;;;;;;;;;;5019657;28;20126;-77
2022/12/06 10:13:47;;;;;;;6.45;4.95;;;;;;;;;;5038385;28;20057;-77
2022/12/06 10:16:16;;;;;;;6.88;4.30;;;;;;;;;;5031811;28;20120;-77
2022/12/06 10:18:54;;;;;;;9.73;4.07;;;;;;;;;;5040712;28;20140;-77
2022/12/06 10:21:23;;;;;;;7.85;3.92;;;;;;;;;;5039854;28;20476;-77
2022/12/06 10:24:08;;;;;;;5.93;3.20;;;;;;;;;;5025506;28;20117;-77
2022/12/06 10:26:43;;;;;;;4.95;2.40;;;;;;;;;;5027657;28;20038;-77
2022/12/06 10:29:18;;;;;;;3.78;2.40;;;;;;;;;;5039108;28;20049;-77
2022/12/06 10:31:44;;;;;;;5.80;2.75;;;;;;;;;;5039778;28;20041;-77
2022/12/06 10:34:11;;;;;;;4.05;2.55;;;;;;;;;;5035078;28;20042;-77
2022/12/06 10:36:42;;;;;;;5.07;2.60;;;;;;;;;;5019561;28;20045;-77
2022/12/06 10:39:21;;;;;;;4.72;2.50;;;;;;;;;;5039712;28;20064;-77
2022/12/06 10:42:06;;;;;;;4.45;2.67;;;;;;;;;;5034620;28;20041;-77
2022/12/06 10:44:37;;;;;;;5.30;2.60;;;;;;;;;;5016459;28;20037;-77
2022/12/06 10:47:06;;;;;;;3.70;2.40;;;;;;;;;;5015963;28;20053;-77
2022/12/06 10:49:39;;;;;;;4.25;2.83;;;;;;;;;;5016448;28;20124;-77
2022/12/06 10:52:18;;;;;;;6.53;3.15;;;;;;;;;;5015698;28;20389;-77
2022/12/06 10:54:56;;;;;;;5.80;3.17;;;;;;;;;;5015827;28;20108;-77
2022/12/06 10:57:36;;;;;;;3.95;2.70;;;;;;;;;;5029779;28;20049;-77
2022/12/06 11:00:07;;;;;;;4.70;2.85;;;;;;;;;;5037208;28;20073;-77
2022/12/06 11:02:48;;;;;;;4.60;2.90;;;;;;;;;;5034287;28;20042;-77
2022/12/06 11:05:23;;;;;;;4.75;2.78;;;;;;;;;;5016506;28;20050;-77
2022/12/06 11:07:52;;;;;;;4.80;3.00;;;;;;;;;;5033375;28;20488;-77
2022/12/06 11:10:20;;;;;;;5.00;2.80;;;;;;;;;;5037487;28;20045;-77
2022/12/06 11:12:47;;;;;;;4.43;2.58;;;;;;;;;;5027224;28;20044;-77
2022/12/06 11:15:16;;;;;;;5.32;3.00;;;;;;;;;;5034469;28;20084;-77
2022/12/06 11:17:49;;;;;;;4.20;3.00;;;;;;;;;;5037079;28;20077;-77
2022/12/06 11:20:15;;;;;;;4.50;3.17;;;;;;;;;;5026274;28;20064;-78
2022/12/06 11:22:48;;;;;;;6.10;3.85;;;;;;;;;;5036751;28;20049;-77
2022/12/06 11:25:21;;;;;;;7.07;3.33;;;;;;;;;;5036532;28;20045;-77
2022/12/06 11:28:03;;;;;;;5.65;3.25;;;;;;;;;;5032747;28;20103;-77
2022/12/06 11:30:30;;;;;;;6.78;3.47;;;;;;;;;;5035489;28;20053;-77
2022/12/06 11:33:00;;;;;;;7.85;3.38;;;;;;;;;;5035216;28;20078;-76
2022/12/06 11:35:27;;;;;;;5.28;3.63;;;;;;;;;;5033749;28;20045;-77
2022/12/06 11:38:05;;;;;;;5.68;3.47;;;;;;;;;;5023142;28;20052;-77
2022/12/06 11:40:36;;;;;;;6.10;3.55;;;;;;;;;;5034432;28;20121;-77
2022/12/06 11:43:07;;;;;;;5.03;3.10;;;;;;;;;;5034824;28;20115;-77
2022/12/06 11:45:34;;;;;;;7.18;3.15;;;;;;;;;;5036152;28;20045;-77
2022/12/06 11:48:01;;;;;;;6.22;3.58;;;;;;;;;;5017146;28;20038;-77
2022/12/06 11:50:28;;;;;;;7.45;3.80;;;;;;;;;;5016181;28;20053;-78
2022/12/06 11:52:57;;;;;;;5.93;3.10;;;;;;;;;;5035098;28;20041;-77
2022/12/06 11:55:29;;;;;;;4.00;2.80;;;;;;;;;;5034769;28;20041;-77
2022/12/06 11:58:11;;;;;;;5.13;2.90;;;;;;;;;;5030191;28;20053;-76
2022/12/06 12:00:37;;;;;;;5.90;2.53;;;;;;;;;;5014836;28;20465;-76
2022/12/06 12:03:03;;;;;;;5.15;2.70;;;;;;;;;;5028493;28;20050;-76
2022/12/06 12:05:33;;;;;;;7.55;2.75;;;;;;;;;;5025187;28;20046;-76
2022/12/06 12:08:02;;;;;;;4.22;2.30;;;;;;;;;;5034855;28;20049;-76
2022/12/06 12:10:31;;;;;;;3.08;2.17;;;;;;;;;;5031874;28;20084;-76
2022/12/06 12:15:51;;;;;;;7.35;3.78;;;;;;;;;;5024038;28;20049;-76
2022/12/06 12:18:36;;;;;;;6.68;3.65;;;;;;;;;;5021825;28;20057;-76
2022/12/06 12:21:04;;;;;;;4.70;2.10;;;;;;;;;;5030622;28;20034;-76
2022/12/06 12:23:44;;;;;;;4.68;2.08;;;;;;;;;;5025839;28;20503;-75
2022/12/06 12:26:17;;;;;;;2.08;1.80;;;;;;;;;;5034799;28;20045;-75
2022/12/06 12:28:45;;;;;;;4.65;2.30;;;;;;;;;;5033902;28;20056;-76
2022/12/06 12:31:21;;;;;;;3.63;2.00;;;;;;;;;;5016018;28;20042;-76
2022/12/06 12:33:47;;;;;;;5.95;2.50;;;;;;;;;;5029385;28;20132;-76
2022/12/06 12:36:13;;;;;;;4.28;2.75;;;;;;;;;;5024765;28;20088;-76
2022/12/06 12:38:52;;;;;;;10.07;5.78;;;;;;;;;;5056030;28;20045;-76
2022/12/06 12:41:24;;;;;;;16.88;8.43;;;;;;;;;;5016066;28;20057;-76
2022/12/06 12:43:57;;;;;;;6.32;2.97;;;;;;;;;;5030029;28;20109;-76
2022/12/06 12:46:23;;;;;;;3.63;2.20;;;;;;;;;;5016090;28;20050;-76
2022/12/06 12:48:50;;;;;;;3.53;1.90;;;;;;;;;;5016417;28;20052;-76
2022/12/06 12:51:22;;;;;;;3.75;2.10;;;;;;;;;;5035564;28;20125;-76
2022/12/06 12:53:52;;;;;;;6.40;2.47;;;;;;;;;;5023589;28;20042;-76
2022/12/06 12:56:20;;;;;;;4.03;1.92;;;;;;;;;;5035009;28;20049;-76
2022/12/06 12:58:47;;;;;;;5.28;2.10;;;;;;;;;;5036124;28;20041;-76
2022/12/06 13:01:33;;;;;;;3.47;2.03;;;;;;;;;;5022889;28;20109;-76
2022/12/06 13:04:15;;;;;;;5.90;2.70;;;;;;;;;;5023411;28;20057;-76
2022/12/06 13:06:47;;;;;;;5.10;2.63;;;;;;;;;;5029556;28;20060;-76
2022/12/06 13:09:21;;;;;;;3.33;2.40;;;;;;;;;;5030169;28;20219;-76
2022/12/06 13:11:49;;;;;;;3.65;2.20;;;;;;;;;;5028098;28;20096;-78
2022/12/06 13:14:18;;;;;;;6.05;2.22;;;;;;;;;;5017143;28;20049;-77
2022/12/06 13:16:45;;;;;;;2.85;1.83;;;;;;;;;;5039933;28;20121;-77
2022/12/06 13:19:15;;;;;;;3.63;1.58;;;;;;;;;;5038995;28;20070;-78
2022/12/06 13:21:44;;;;;;;2.92;1.55;;;;;;;;;;5033123;28;20054;-78
2022/12/06 13:24:10;;;;;;;2.20;1.67;;;;;;;;;;5030410;28;20120;-79
2022/12/06 13:26:42;;;;;;;4.72;2.00;;;;;;;;;;5017982;28;20046;-77
2022/12/06 13:29:23;;;;;;;5.18;2.05;;;;;;;;;;5018426;28;20129;-77
2022/12/06 13:31:51;;;;;;;2.85;1.60;;;;;;;;;;5016669;28;20038;-81
2022/12/06 13:34:22;;;;;;;4.63;2.42;;;;;;;;;;5015998;28;20129;-81
2022/12/06 13:36:51;;;;;;;4.65;2.40;;;;;;;;;;5021887;28;20061;-81
2022/12/06 13:39:32;;;;;;;5.60;3.05;;;;;;;;;;5034555;28;20041;-81
2022/12/06 13:42:18;;;;;;;3.47;1.83;;;;;;;;;;5034791;28;20385;-81
2022/12/06 13:44:47;;;;;;;3.67;2.33;;;;;;;;;;5033493;28;20046;-81
2022/12/06 13:47:34;;;;;;;2.67;1.80;;;;;;;;;;5002724;28;20046;-81
2022/12/06 13:50:01;;;;;;;4.22;2.20;;;;;;;;;;5016117;28;20520;-81
2022/12/06 13:52:43;;;;;;;3.85;1.60;;;;;;;;;;5033481;28;20137;-81
2022/12/06 13:55:24;;;;;;;1.63;1.30;;;;;;;;;;5031548;28;20041;-80
2022/12/06 13:57:50;;;;;;;2.33;1.70;;;;;;;;;;5044111;28;20084;-80
2022/12/06 14:00:29;;;;;;;4.43;2.15;;;;;;;;;;5033655;28;20400;-80
2022/12/06 14:03:01;;;;;;;4.50;2.58;;;;;;;;;;5055742;28;20072;-80
2022/12/06 14:05:45;;;;;;;5.65;2.72;;;;;;;;;;5042879;28;20111;-80
2022/12/06 14:08:12;;;;;;;3.90;2.67;;;;;;;;;;5031275;28;20112;-80
2022/12/06 14:10:38;;;;;;;5.93;2.55;;;;;;;;;;5042439;28;20052;-80
2022/12/06 14:13:05;;;;;;;4.90;3.30;;;;;;;;;;5042150;28;20041;-80
2022/12/06 14:15:31;;;;;;;7.63;3.50;;;;;;;;;;5040644;28;20049;-80
2022/12/06 14:17:57;;;;;;;4.18;2.67;;;;;;;;;;5041987;28;20093;-80
2022/12/06 14:20:28;;;;;;;3.03;2.10;;;;;;;;;;5041635;28;20443;-80
2022/12/06 14:22:54;;;;;;;4.57;2.30;;;;;;;;;;5040763;28;20053;-80
2022/12/06 14:25:21;;;;;;;3.78;2.30;;;;;;;;;;5039498;28;20067;-80
2022/12/06 14:27:51;;;;;;;4.90;3.08;;;;;;;;;;5040722;28;20412;-80
2022/12/06 14:30:21;;;;;;;8.32;4.85;;;;;;;;;;5038171;28;20132;-81
2022/12/06 14:32:51;;;;;;;10.63;4.53;;;;;;;;;;5026149;28;20042;-81
2022/12/06 14:35:35;;;;;;;10.07;4.78;;;;;;;;;;5039498;28;20412;-81
2022/12/06 14:38:05;;;;;;;9.25;4.97;;;;;;;;;;5023251;28;20064;-81
2022/12/06 14:43:00;;;;;;;4.82;3.22;;;;;;;;;;5021398;28;20042;-81
2022/12/06 14:43:21;;;;;;;6.45;3.78;;;;;;;;;;5040058;28;20403;-81
2022/12/06 14:45:48;;;;;;;14.70;8.80;;;;;;;;;;5038564;28;20042;-81
2022/12/06 14:48:15;;;;;;;9.88;6.25;;;;;;;;;;5038644;28;20045;-81
2022/12/06 14:50:48;;;;;;;11.35;6.28;;;;;;;;;;5031912;28;20125;-81
2022/12/06 14:53:35;;;;;;;47.15;25.92;;;;;;;;;;5034995;28;20061;-81
2022/12/06 14:56:20;;;;;;;16.00;11.30;;;;;;;;;;5024979;28;20044;-81
2022/12/06 14:58:48;;;;;;;13.75;9.38;;;;;;;;;;5024518;28;20137;-81
2022/12/06 15:01:15;;;;;;;11.95;7.07;;;;;;;;;;5040683;28;20041;-81
2022/12/06 15:03:41;;;;;;;11.05;6.68;;;;;;;;;;5037394;28;20037;-80
2022/12/06 15:06:12;;;;;;;6.90;5.07;;;;;;;;;;5035876;28;20404;-81
2022/12/06 15:08:43;;;;;;;5.93;4.00;;;;;;;;;;5026736;28;20050;-81
2022/12/06 15:11:09;;;;;;;6.70;5.15;;;;;;;;;;5029007;28;20129;-80
2022/12/06 15:13:35;;;;;;;7.25;5.80;;;;;;;;;;5017871;28;20288;-80
2022/12/06 15:16:22;;;;;;;7.97;6.03;;;;;;;;;;5019106;28;20100;-80
2022/12/06 15:18:48;;;;;;;;;;;;;;;;;;5022836;28;20073;-80